createdAt,value
2022-09-01T00:00:37.262Z,0.00
2022-09-01T00:01:37.227Z,0.00
2022-09-01T00:02:37.247Z,0.00
2022-09-01T00:03:37.279Z,0.00
2022-09-01T00:04:37.280Z,0.00
2022-09-01T00:05:37.221Z,0.00
2022-09-01T00:06:37.414Z,0.00
2022-09-01T00:07:37.134Z,0.00
2022-09-01T00:08:37.125Z,0.00
2022-09-01T00:09:37.122Z,0.00
2022-09-01T00:10:37.092Z,0.00
2022-09-01T00:11:37.107Z,0.00
2022-09-01T00:12:37.091Z,0.00
2022-09-01T00:13:37.052Z,0.00
2022-09-01T00:14:40.985Z,0.00
2022-09-01T00:15:37.079Z,0.00
2022-09-01T00:16:38.905Z,0.00
2022-09-01T00:17:37.018Z,0.00
2022-09-01T00:18:36.985Z,0.00
2022-09-01T00:19:36.997Z,0.00
2022-09-01T00:20:37.062Z,0.00
2022-09-01T00:21:36.961Z,0.00
2022-09-01T00:22:37.899Z,0.00
2022-09-01T00:23:36.916Z,0.00
2022-09-01T00:24:36.917Z,0.00
2022-09-01T00:25:36.906Z,0.00
2022-09-01T00:26:36.925Z,0.00
2022-09-01T00:27:36.865Z,0.00
2022-09-01T00:28:37.526Z,0.00
2022-09-01T00:29:36.857Z,0.00
2022-09-01T00:30:36.890Z,0.00
2022-09-01T00:31:36.837Z,0.00
2022-09-01T00:32:36.807Z,0.00
2022-09-01T00:33:36.797Z,0.00
2022-09-01T00:34:36.788Z,0.00
2022-09-01T00:35:37.293Z,0.00
2022-09-01T00:36:36.753Z,0.00
2022-09-01T00:37:36.797Z,0.00
2022-09-01T00:38:36.737Z,0.00
2022-09-01T00:39:36.724Z,0.00
2022-09-01T00:40:36.790Z,0.00
2022-09-01T00:41:36.726Z,0.00
2022-09-01T00:42:36.715Z,0.00
2022-09-01T00:43:36.663Z,0.00
2022-09-01T00:44:36.652Z,0.00
2022-09-01T00:45:36.634Z,0.00
2022-09-01T00:46:36.665Z,0.00
2022-09-01T00:47:37.676Z,0.00
2022-09-01T00:48:36.600Z,0.00
2022-09-01T00:49:36.931Z,0.00
2022-09-01T00:50:36.608Z,0.00
2022-09-01T00:51:36.597Z,0.00
2022-09-01T00:52:36.543Z,0.00
2022-09-01T00:53:36.796Z,0.00
2022-09-01T00:54:36.544Z,0.00
2022-09-01T00:55:36.500Z,0.00
2022-09-01T00:56:36.540Z,0.00
2022-09-01T00:57:36.496Z,0.00
2022-09-01T00:58:36.485Z,0.00
2022-09-01T00:59:36.456Z,0.00
2022-09-01T01:00:36.439Z,0.00
2022-09-01T01:01:36.480Z,0.00
2022-09-01T01:02:36.500Z,0.00
2022-09-01T01:03:36.391Z,0.00
2022-09-01T01:04:36.400Z,0.00
2022-09-01T01:05:36.365Z,0.00
2022-09-01T01:06:36.369Z,0.00
2022-09-01T01:07:36.354Z,0.00
2022-09-01T01:08:36.344Z,0.00
2022-09-01T01:09:40.311Z,0.00
2022-09-01T01:10:36.320Z,0.00
2022-09-01T01:11:36.303Z,0.00
2022-09-01T01:12:36.298Z,0.00
2022-09-01T01:13:36.297Z,0.00
2022-09-01T01:14:36.283Z,0.00
2022-09-01T01:15:36.268Z,0.00
2022-09-01T01:16:36.302Z,0.00
2022-09-01T01:17:36.219Z,0.00
2022-09-01T01:18:36.246Z,0.00
2022-09-01T01:19:39.028Z,0.00
2022-09-01T01:20:36.198Z,0.00
2022-09-01T01:21:36.167Z,0.00
2022-09-01T01:22:36.173Z,0.00
2022-09-01T01:23:36.220Z,0.00
2022-09-01T01:24:36.139Z,0.00
2022-09-01T01:25:36.124Z,0.00
2022-09-01T01:26:36.103Z,0.00
2022-09-01T01:27:38.095Z,0.00
2022-09-01T01:28:37.131Z,0.00
2022-09-01T01:29:36.083Z,0.00
2022-09-01T01:30:36.143Z,0.00
2022-09-01T01:31:36.305Z,0.00
2022-09-01T01:32:36.028Z,0.00
2022-09-01T01:33:36.007Z,0.00
2022-09-01T01:34:36.017Z,0.00
2022-09-01T01:35:35.986Z,0.00
2022-09-01T01:36:35.968Z,0.00
2022-09-01T01:37:35.970Z,0.00
2022-09-01T01:38:35.988Z,0.00
2022-09-01T01:39:35.947Z,0.00
2022-09-01T01:40:36.234Z,0.00
2022-09-01T01:41:35.909Z,0.00
2022-09-01T01:42:35.900Z,0.00
2022-09-01T01:43:35.880Z,0.00
2022-09-01T01:44:35.944Z,0.00
2022-09-01T01:45:35.891Z,0.00
2022-09-01T01:46:35.891Z,0.00
2022-09-01T01:47:35.871Z,0.00
2022-09-01T01:48:35.895Z,0.00
2022-09-01T01:49:35.859Z,0.00
2022-09-01T01:50:35.983Z,0.00
2022-09-01T01:51:35.790Z,0.00
2022-09-01T01:52:35.833Z,0.00
2022-09-01T01:53:35.760Z,0.00
2022-09-01T01:54:35.776Z,0.00
2022-09-01T01:55:35.746Z,0.00
2022-09-01T01:56:35.754Z,0.00
2022-09-01T01:57:39.520Z,0.00
2022-09-01T01:58:35.691Z,0.00
2022-09-01T01:59:35.720Z,0.00
2022-09-01T02:00:35.661Z,0.00
2022-09-01T02:01:35.705Z,0.00
2022-09-01T02:02:35.653Z,0.00
2022-09-01T02:03:35.654Z,0.00
2022-09-01T02:04:35.651Z,0.00
2022-09-01T02:05:35.648Z,0.00
2022-09-01T02:06:35.633Z,0.00
2022-09-01T02:07:35.824Z,0.00
2022-09-01T02:08:35.571Z,0.00
2022-09-01T02:09:35.584Z,0.00
2022-09-01T02:10:35.540Z,0.00
2022-09-01T02:11:35.537Z,0.00
2022-09-01T02:12:35.506Z,0.00
2022-09-01T02:13:35.498Z,0.00
2022-09-01T02:14:35.499Z,0.00
2022-09-01T02:15:35.519Z,0.00
2022-09-01T02:16:35.554Z,0.00
2022-09-01T02:17:35.462Z,0.00
2022-09-01T02:18:35.469Z,0.00
2022-09-01T02:19:35.440Z,0.00
2022-09-01T02:20:35.408Z,0.00
2022-09-01T02:21:35.390Z,0.00
2022-09-01T02:22:35.394Z,0.00
2022-09-01T02:23:35.392Z,0.00
2022-09-01T02:24:35.371Z,0.00
2022-09-01T02:25:35.362Z,0.00
2022-09-01T02:26:35.343Z,0.00
2022-09-01T02:27:35.333Z,0.00
2022-09-01T02:28:35.997Z,0.00
2022-09-01T02:29:38.632Z,0.00
2022-09-01T02:30:36.307Z,0.00
2022-09-01T02:31:35.292Z,0.00
2022-09-01T02:32:35.284Z,0.00
2022-09-01T02:33:35.248Z,0.00
2022-09-01T02:34:35.902Z,0.00
2022-09-01T02:35:35.271Z,0.00
2022-09-01T02:36:35.282Z,0.00
2022-09-01T02:37:35.191Z,0.00
2022-09-01T02:38:35.189Z,0.00
2022-09-01T02:39:35.179Z,0.00
2022-09-01T02:40:35.284Z,0.00
2022-09-01T02:41:35.154Z,0.00
2022-09-01T02:42:35.198Z,0.00
2022-09-01T02:43:36.068Z,0.00
2022-09-01T02:44:39.473Z,0.00
2022-09-01T02:45:36.116Z,0.00
2022-09-01T02:46:35.391Z,0.00
2022-09-01T02:47:35.091Z,0.00
2022-09-01T02:48:35.123Z,0.00
2022-09-01T02:49:35.172Z,0.00
2022-09-01T02:50:35.021Z,0.00
2022-09-01T02:51:35.024Z,0.00
2022-09-01T02:52:38.855Z,0.00
2022-09-01T02:53:34.980Z,0.00
2022-09-01T02:54:34.986Z,0.00
2022-09-01T02:55:34.973Z,0.00
2022-09-01T02:56:34.992Z,0.00
2022-09-01T02:57:34.928Z,0.00
2022-09-01T02:58:34.922Z,0.00
2022-09-01T02:59:34.942Z,0.00
2022-09-01T03:00:34.901Z,0.00
2022-09-01T03:01:34.966Z,0.00
2022-09-01T03:02:34.878Z,0.00
2022-09-01T03:03:34.926Z,0.00
2022-09-01T03:04:34.977Z,0.00
2022-09-01T03:05:34.830Z,0.00
2022-09-01T03:06:35.083Z,0.00
2022-09-01T03:07:34.805Z,0.00
2022-09-01T03:08:34.790Z,0.00
2022-09-01T03:09:34.805Z,0.00
2022-09-01T03:10:34.809Z,0.00
2022-09-01T03:11:34.757Z,0.00
2022-09-01T03:12:34.731Z,0.00
2022-09-01T03:13:34.739Z,0.00
2022-09-01T03:14:34.748Z,0.00
2022-09-01T03:15:34.988Z,0.00
2022-09-01T03:16:34.759Z,0.00
2022-09-01T03:17:34.712Z,0.00
2022-09-01T03:18:34.647Z,0.00
2022-09-01T03:19:34.666Z,0.00
2022-09-01T03:20:34.634Z,0.00
2022-09-01T03:21:34.753Z,0.00
2022-09-01T03:22:34.617Z,0.00
2022-09-01T03:23:34.645Z,0.00
2022-09-01T03:24:34.574Z,0.00
2022-09-01T03:25:34.577Z,0.00
2022-09-01T03:26:34.598Z,0.00
2022-09-01T03:27:34.870Z,0.00
2022-09-01T03:28:34.534Z,0.00
2022-09-01T03:29:36.281Z,0.00
2022-09-01T03:30:34.524Z,0.00
2022-09-01T03:31:34.599Z,0.00
2022-09-01T03:32:34.541Z,0.00
2022-09-01T03:33:34.477Z,0.00
2022-09-01T03:34:34.451Z,0.00
2022-09-01T03:35:34.445Z,0.00
2022-09-01T03:36:34.429Z,0.00
2022-09-01T03:37:34.422Z,0.00
2022-09-01T03:38:34.390Z,0.00
2022-09-01T03:39:34.389Z,0.00
2022-09-01T03:40:34.476Z,0.00
2022-09-01T03:41:34.391Z,0.00
2022-09-01T03:42:34.613Z,0.00
2022-09-01T03:43:36.067Z,0.00
2022-09-01T03:44:34.328Z,0.00
2022-09-01T03:45:34.380Z,0.00
2022-09-01T03:46:36.820Z,0.00
2022-09-01T03:47:34.281Z,0.00
2022-09-01T03:48:34.273Z,0.00
2022-09-01T03:49:34.256Z,0.00
2022-09-01T03:50:34.241Z,0.00
2022-09-01T03:51:34.241Z,0.00
2022-09-01T03:52:34.206Z,0.00
2022-09-01T03:53:34.265Z,0.00
2022-09-01T03:54:34.191Z,0.00
2022-09-01T03:55:34.173Z,0.00
2022-09-01T03:56:34.173Z,0.00
2022-09-01T03:57:34.152Z,4.00
2022-09-01T03:58:34.126Z,4.00
2022-09-01T03:59:34.201Z,0.00
2022-09-01T04:00:34.109Z,4.00
2022-09-01T04:01:34.206Z,4.00
2022-09-01T04:02:34.111Z,4.00
2022-09-01T04:03:34.114Z,4.00
2022-09-01T04:04:34.059Z,4.00
2022-09-01T04:05:34.082Z,4.00
2022-09-01T04:06:34.063Z,4.00
2022-09-01T04:07:34.028Z,8.00
2022-09-01T04:08:33.996Z,8.00
2022-09-01T04:09:34.036Z,12.00
2022-09-01T04:10:33.987Z,12.00
2022-09-01T04:11:33.993Z,12.00
2022-09-01T04:12:33.954Z,20.00
2022-09-01T04:13:33.949Z,20.00
2022-09-01T04:14:33.976Z,24.00
2022-09-01T04:15:33.915Z,28.00
2022-09-01T04:16:34.031Z,32.00
2022-09-01T04:17:33.887Z,36.00
2022-09-01T04:18:33.882Z,44.00
2022-09-01T04:19:33.910Z,48.00
2022-09-01T04:20:33.853Z,56.00
2022-09-01T04:21:34.622Z,64.00
2022-09-01T04:22:33.831Z,72.00
2022-09-01T04:23:33.836Z,76.00
2022-09-01T04:24:33.855Z,88.00
2022-09-01T04:25:33.792Z,96.00
2022-09-01T04:26:34.100Z,108.00
2022-09-01T04:27:33.770Z,120.00
2022-09-01T04:28:33.736Z,132.00
2022-09-01T04:29:33.760Z,148.00
2022-09-01T04:30:33.752Z,160.00
2022-09-01T04:31:34.110Z,172.00
2022-09-01T04:32:33.730Z,188.00
2022-09-01T04:33:33.681Z,204.00
2022-09-01T04:34:33.662Z,220.00
2022-09-01T04:35:37.764Z,236.00
2022-09-01T04:36:33.706Z,248.00
2022-09-01T04:37:33.643Z,268.00
2022-09-01T04:38:33.634Z,284.00
2022-09-01T04:39:33.640Z,304.00
2022-09-01T04:40:33.748Z,324.00
2022-09-01T04:41:33.587Z,336.00
2022-09-01T04:42:33.571Z,360.00
2022-09-01T04:43:33.549Z,376.00
2022-09-01T04:44:33.545Z,396.00
2022-09-01T04:45:33.664Z,416.00
2022-09-01T04:46:33.534Z,436.00
2022-09-01T04:47:36.114Z,456.00
2022-09-01T04:48:33.498Z,472.00
2022-09-01T04:49:33.476Z,492.00
2022-09-01T04:50:34.131Z,516.00
2022-09-01T04:51:33.517Z,536.00
2022-09-01T04:52:37.327Z,552.00
2022-09-01T04:53:33.421Z,572.00
2022-09-01T04:54:33.408Z,592.00
2022-09-01T04:55:33.396Z,612.00
2022-09-01T04:56:34.353Z,632.00
2022-09-01T04:57:33.390Z,652.00
2022-09-01T04:58:33.428Z,668.00
2022-09-01T04:59:33.338Z,688.00
2022-09-01T05:00:33.357Z,704.00
2022-09-01T05:01:33.374Z,724.00
2022-09-01T05:02:33.451Z,740.00
2022-09-01T05:03:33.335Z,760.00
2022-09-01T05:04:33.285Z,776.00
2022-09-01T05:05:33.266Z,792.00
2022-09-01T05:06:33.288Z,804.00
2022-09-01T05:07:33.251Z,824.00
2022-09-01T05:08:33.233Z,840.00
2022-09-01T05:09:33.244Z,852.00
2022-09-01T05:10:33.195Z,872.00
2022-09-01T05:11:33.197Z,884.00
2022-09-01T05:12:33.175Z,900.00
2022-09-01T05:13:33.166Z,916.00
2022-09-01T05:14:33.158Z,928.00
2022-09-01T05:15:33.179Z,944.00
2022-09-01T05:16:33.136Z,960.00
2022-09-01T05:17:33.226Z,972.00
2022-09-01T05:18:33.323Z,988.00
2022-09-01T05:19:33.190Z,1000.00
2022-09-01T05:20:33.145Z,1012.00
2022-09-01T05:21:33.091Z,1024.00
2022-09-01T05:22:33.071Z,1036.00
2022-09-01T05:23:33.034Z,1048.00
2022-09-01T05:24:33.011Z,1064.00
2022-09-01T05:25:33.010Z,1072.00
2022-09-01T05:26:33.000Z,1088.00
2022-09-01T05:27:32.998Z,1100.00
2022-09-01T05:28:36.719Z,1108.00
2022-09-01T05:29:32.969Z,1120.00
2022-09-01T05:30:33.591Z,1132.00
2022-09-01T05:31:32.990Z,1144.00
2022-09-01T05:32:32.970Z,1156.00
2022-09-01T05:33:32.912Z,1168.00
2022-09-01T05:34:32.889Z,1180.00
2022-09-01T05:35:33.228Z,1188.00
2022-09-01T05:36:32.863Z,1200.00
2022-09-01T05:37:32.882Z,1208.00
2022-09-01T05:38:32.850Z,1216.00
2022-09-01T05:39:32.870Z,1224.00
2022-09-01T05:40:32.845Z,1236.00
2022-09-01T05:41:32.829Z,1244.00
2022-09-01T05:42:32.819Z,1252.00
2022-09-01T05:43:32.796Z,1260.00
2022-09-01T05:44:32.765Z,1272.00
2022-09-01T05:45:44.901Z,1280.00
2022-09-01T05:46:33.765Z,1288.00
2022-09-01T05:47:32.736Z,1296.00
2022-09-01T05:48:32.739Z,1308.00
2022-09-01T05:49:32.700Z,1316.00
2022-09-01T05:50:32.683Z,1328.00
2022-09-01T05:51:50.252Z,1332.00
2022-09-01T05:52:33.672Z,1344.00
2022-09-01T05:53:32.642Z,1352.00
2022-09-01T05:54:32.671Z,1364.00
2022-09-01T05:55:32.617Z,1368.00
2022-09-01T05:56:32.602Z,1380.00
2022-09-01T05:57:35.014Z,1384.00
2022-09-01T05:59:33.586Z,1400.00
2022-09-01T06:00:32.554Z,1408.00
2022-09-01T06:01:32.589Z,1416.00
2022-09-01T06:02:32.598Z,1420.00
2022-09-01T06:03:32.567Z,1428.00
2022-09-01T06:04:33.553Z,1436.00
2022-09-01T06:05:32.499Z,1440.00
2022-09-01T06:06:43.947Z,1452.00
2022-09-01T06:07:33.476Z,1456.00
2022-09-01T06:08:32.449Z,1464.00
2022-09-01T06:09:32.482Z,1472.00
2022-09-01T06:10:32.428Z,1476.00
2022-09-01T06:11:32.491Z,1488.00
2022-09-01T06:12:32.418Z,1492.00
2022-09-01T06:13:32.423Z,1500.00
2022-09-01T06:14:32.379Z,1504.00
2022-09-01T06:15:32.358Z,1512.00
2022-09-01T06:16:32.422Z,1516.00
2022-09-01T06:17:34.695Z,1524.00
2022-09-01T06:18:32.324Z,1528.00
2022-09-01T06:19:36.735Z,1528.00
2022-09-01T06:20:32.307Z,1540.00
2022-09-01T06:21:32.300Z,1544.00
2022-09-01T06:22:32.325Z,1548.00
2022-09-01T06:23:32.263Z,1552.00
2022-09-01T06:24:32.257Z,1556.00
2022-09-01T06:25:32.234Z,1564.00
2022-09-01T06:26:32.224Z,1568.00
2022-09-01T06:27:32.301Z,1572.00
2022-09-01T06:28:36.035Z,1576.00
2022-09-01T06:29:32.183Z,1584.00
2022-09-01T06:30:32.219Z,1588.00
2022-09-01T06:31:36.064Z,1588.00
2022-09-01T06:32:32.164Z,1592.00
2022-09-01T06:33:32.121Z,1596.00
2022-09-01T06:34:32.793Z,1600.00
2022-09-01T06:35:32.099Z,1604.00
2022-09-01T06:36:34.967Z,1612.00
2022-09-01T06:37:32.096Z,1616.00
2022-09-01T06:38:32.068Z,1620.00
2022-09-01T06:39:32.761Z,1624.00
2022-09-01T06:40:32.092Z,1628.00
2022-09-01T06:41:32.020Z,1632.00
2022-09-01T06:42:32.009Z,1640.00
2022-09-01T06:43:32.007Z,1640.00
2022-09-01T06:44:32.724Z,1644.00
2022-09-01T06:45:31.995Z,1652.00
2022-09-01T06:46:32.066Z,1652.00
2022-09-01T06:47:31.958Z,1656.00
2022-09-01T06:48:31.985Z,1660.00
2022-09-01T06:49:31.923Z,1664.00
2022-09-01T06:51:32.906Z,1672.00
2022-09-01T06:53:32.138Z,1676.00
2022-09-01T06:53:34.188Z,1680.00
2022-09-01T06:54:31.856Z,1680.00
2022-09-01T06:55:31.849Z,1684.00
2022-09-01T06:56:32.296Z,1684.00
2022-09-01T06:58:33.691Z,1688.00
2022-09-01T06:59:34.874Z,1692.00
2022-09-01T07:00:31.761Z,1696.00
2022-09-01T07:01:31.907Z,1700.00
2022-09-01T07:02:33.735Z,1700.00
2022-09-01T07:03:31.734Z,1704.00
2022-09-01T07:08:32.688Z,1724.00
2022-09-01T07:09:47.764Z,1728.00
2022-09-01T07:10:32.661Z,1728.00
2022-09-01T07:12:32.630Z,1736.00
2022-09-01T07:13:31.626Z,1744.00
2022-09-01T07:14:32.844Z,1748.00
2022-09-01T07:16:32.080Z,1748.00
2022-09-01T07:16:35.429Z,1752.00
2022-09-01T07:17:31.558Z,1756.00
2022-09-01T07:18:31.588Z,1760.00
2022-09-01T07:20:32.524Z,1768.00
2022-09-01T07:21:41.745Z,1772.00
2022-09-01T07:22:36.260Z,1780.00
2022-09-01T07:23:46.205Z,1780.00
2022-09-01T07:24:32.466Z,1788.00
2022-09-01T07:26:00.494Z,1796.00
2022-09-01T07:26:32.471Z,1796.00
2022-09-01T07:27:35.945Z,1800.00
2022-09-01T07:28:39.951Z,1804.00
2022-09-01T07:29:32.391Z,1812.00
2022-09-01T07:30:31.377Z,1820.00
2022-09-01T07:32:47.986Z,1828.00
2022-09-01T07:33:44.469Z,1832.00
2022-09-01T07:34:40.013Z,1836.00
2022-09-01T07:35:32.592Z,1840.00
2022-09-01T07:36:32.322Z,1848.00
2022-09-01T07:38:49.602Z,1852.00
2022-09-01T07:41:44.194Z,1708.00
2022-09-01T07:42:30.882Z,1864.00
2022-09-01T07:43:33.466Z,1884.00
2022-09-01T07:44:31.208Z,1892.00
2022-09-01T07:45:31.194Z,1896.00
2022-09-01T07:46:38.361Z,1904.00
2022-09-01T07:49:52.379Z,1924.00
2022-09-01T07:51:34.129Z,1928.00
2022-09-01T07:51:36.843Z,1928.00
2022-09-01T07:52:32.126Z,1936.00
2022-09-01T07:53:31.121Z,1948.00
2022-09-01T07:54:31.071Z,1952.00
2022-09-01T07:55:31.090Z,1960.00
2022-09-01T07:56:31.071Z,1968.00
2022-09-01T07:57:31.098Z,1972.00
2022-09-01T07:58:31.035Z,1980.00
2022-09-01T07:59:31.004Z,1984.00
2022-09-01T08:00:31.062Z,1988.00
2022-09-01T08:01:31.035Z,1992.00
2022-09-01T08:02:31.101Z,1992.00
2022-09-01T08:03:31.215Z,2000.00
2022-09-01T08:04:30.936Z,2000.00
2022-09-01T08:05:30.941Z,2008.00
2022-09-01T08:06:37.969Z,2012.00
2022-09-01T08:07:31.887Z,2016.00
2022-09-01T08:08:31.118Z,2020.00
2022-09-01T08:09:38.234Z,2024.00
2022-09-01T08:10:31.883Z,2032.00
2022-09-01T08:12:31.854Z,2044.00
2022-09-01T08:13:30.843Z,2048.00
2022-09-01T08:14:33.793Z,2056.00
2022-09-01T08:15:40.412Z,2060.00
2022-09-01T08:16:39.389Z,2064.00
2022-09-01T08:17:50.661Z,2072.00
2022-09-01T08:18:48.129Z,2080.00
2022-09-01T08:19:33.697Z,2088.00
2022-09-01T08:20:30.741Z,2092.00
2022-09-01T08:21:30.716Z,2100.00
2022-09-01T08:22:30.768Z,2108.00
2022-09-01T08:23:31.023Z,2112.00
2022-09-01T08:24:30.685Z,2116.00
2022-09-01T08:25:30.657Z,2124.00
2022-09-01T08:26:30.656Z,2132.00
2022-09-01T08:27:30.666Z,2140.00
2022-09-01T08:28:30.866Z,2148.00
2022-09-01T08:29:30.677Z,2156.00
2022-09-01T08:30:30.614Z,2160.00
2022-09-01T08:31:31.246Z,2172.00
2022-09-01T08:32:30.585Z,2180.00
2022-09-01T08:33:30.557Z,2192.00
2022-09-01T08:34:30.578Z,2200.00
2022-09-01T08:35:31.087Z,2212.00
2022-09-01T08:36:30.525Z,2216.00
2022-09-01T08:37:30.512Z,2228.00
2022-09-01T08:38:30.582Z,2236.00
2022-09-01T08:39:30.471Z,2248.00
2022-09-01T08:40:30.510Z,2256.00
2022-09-01T08:41:35.206Z,2268.00
2022-09-01T08:42:32.807Z,2272.00
2022-09-01T08:43:30.453Z,2284.00
2022-09-01T08:44:30.435Z,2288.00
2022-09-01T08:45:30.406Z,2300.00
2022-09-01T08:46:30.542Z,2312.00
2022-09-01T08:47:43.715Z,2320.00
2022-09-01T08:49:42.196Z,2332.00
2022-09-01T08:50:31.353Z,2340.00
2022-09-01T08:51:30.530Z,2352.00
2022-09-01T08:52:30.363Z,2356.00
2022-09-01T08:53:32.653Z,2368.00
2022-09-01T08:54:31.897Z,2376.00
2022-09-01T08:55:30.283Z,2392.00
2022-09-01T08:56:30.274Z,2400.00
2022-09-01T08:57:30.261Z,2404.00
2022-09-01T08:58:30.232Z,2412.00
2022-09-01T08:59:30.296Z,2420.00
2022-09-01T09:00:30.233Z,2432.00
2022-09-01T09:01:30.520Z,2440.00
2022-09-01T09:02:30.230Z,2448.00
2022-09-01T09:03:40.532Z,2464.00
2022-09-01T09:04:31.165Z,2492.00
2022-09-01T09:05:30.143Z,2516.00
2022-09-01T09:06:30.131Z,2536.00
2022-09-01T09:07:30.841Z,2548.00
2022-09-01T09:08:33.545Z,2564.00
2022-09-01T09:09:34.128Z,2584.00
2022-09-01T09:10:30.074Z,2604.00
2022-09-01T09:11:30.176Z,2616.00
2022-09-01T09:12:30.060Z,2636.00
2022-09-01T09:13:30.076Z,2652.00
2022-09-01T09:14:30.091Z,2672.00
2022-09-01T09:15:30.095Z,2688.00
2022-09-01T09:16:30.113Z,2704.00
2022-09-01T09:17:29.998Z,2720.00
2022-09-01T09:18:39.954Z,2736.00
2022-09-01T09:19:30.962Z,2748.00
2022-09-01T09:20:30.028Z,2764.00
2022-09-01T09:21:30.394Z,2784.00
2022-09-01T09:22:29.995Z,2808.00
2022-09-01T09:23:29.911Z,2832.00
2022-09-01T09:24:39.308Z,2860.00
2022-09-01T09:25:30.885Z,2888.00
2022-09-01T09:26:42.244Z,2916.00
2022-09-01T09:27:31.113Z,2944.00
2022-09-01T09:28:29.877Z,2968.00
2022-09-01T09:29:30.058Z,2996.00
2022-09-01T09:30:29.822Z,3064.00
2022-09-01T09:31:29.886Z,3044.00
2022-09-01T09:32:50.510Z,3068.00
2022-09-01T09:33:49.817Z,3112.00
2022-09-01T09:34:30.794Z,3280.00
2022-09-01T09:35:29.811Z,3572.00
2022-09-01T09:36:29.815Z,3864.00
2022-09-01T09:37:29.750Z,3820.00
2022-09-01T09:38:29.729Z,3604.00
2022-09-01T09:39:29.945Z,3528.00
2022-09-01T09:40:29.828Z,3560.00
2022-09-01T09:41:29.846Z,3580.00
2022-09-01T09:42:34.737Z,3672.00
2022-09-01T09:43:30.638Z,3704.00
2022-09-01T09:44:29.698Z,3840.00
2022-09-01T09:45:29.627Z,4004.00
2022-09-01T09:46:29.664Z,4020.00
2022-09-01T09:47:43.031Z,4128.00
2022-09-01T09:48:30.612Z,4344.00
2022-09-01T09:49:35.898Z,4812.00
2022-09-01T09:50:30.581Z,4984.00
2022-09-01T09:51:29.673Z,4892.00
2022-09-01T09:52:29.767Z,5044.00
2022-09-01T09:53:29.527Z,5028.00
2022-09-01T09:54:29.508Z,4900.00
2022-09-01T09:55:29.518Z,4480.00
2022-09-01T09:56:29.544Z,4280.00
2022-09-01T09:57:29.500Z,4428.00
2022-09-01T09:58:29.487Z,4752.00
2022-09-01T09:59:56.580Z,4964.00
2022-09-01T10:00:30.440Z,4976.00
2022-09-01T10:01:33.309Z,4864.00
2022-09-01T10:02:29.416Z,5220.00
2022-09-01T10:03:29.396Z,4420.00
2022-09-01T10:04:29.426Z,5700.00
2022-09-01T10:05:30.183Z,6332.00
2022-09-01T10:06:29.353Z,9772.00
2022-09-01T10:07:29.416Z,35424.00
2022-09-01T10:08:29.380Z,64768.00
2022-09-01T10:09:29.383Z,68064.00
2022-09-01T10:10:29.329Z,70560.00
2022-09-01T10:11:33.438Z,74048.00
2022-09-01T10:12:30.307Z,73760.00
2022-09-01T10:13:29.260Z,72416.00
2022-09-01T10:14:51.832Z,69472.00
2022-09-01T10:15:30.293Z,38112.00
2022-09-01T10:16:32.034Z,10388.00
2022-09-01T10:17:29.419Z,9044.00
2022-09-01T10:18:29.771Z,8332.00
2022-09-01T10:19:32.348Z,9216.00
2022-09-01T10:20:30.175Z,8188.00
2022-09-01T10:21:29.191Z,7636.00
2022-09-01T10:22:29.133Z,7288.00
2022-09-01T10:23:31.369Z,8132.00
2022-09-01T10:24:30.924Z,7892.00
2022-09-01T10:25:29.623Z,7060.00
2022-09-01T10:26:29.086Z,6544.00
2022-09-01T10:27:29.163Z,6376.00
2022-09-01T10:28:29.068Z,6076.00
2022-09-01T10:29:35.081Z,6068.00
2022-09-01T10:30:30.150Z,5896.00
2022-09-01T10:31:32.217Z,6208.00
2022-09-01T10:32:36.659Z,6488.00
2022-09-01T10:33:30.022Z,6384.00
2022-09-01T10:34:29.006Z,6604.00
2022-09-01T10:35:28.980Z,6624.00
2022-09-01T10:36:28.959Z,6340.00
2022-09-01T10:37:28.966Z,6164.00
2022-09-01T10:38:29.039Z,6068.00
2022-09-01T10:39:30.966Z,5940.00
2022-09-01T10:40:32.016Z,5812.00
2022-09-01T10:41:28.913Z,5740.00
2022-09-01T10:42:29.135Z,5664.00
2022-09-01T10:43:29.380Z,5564.00
2022-09-01T10:44:31.360Z,5552.00
2022-09-01T10:45:28.840Z,5588.00
2022-09-01T10:46:38.776Z,5712.00
2022-09-01T10:47:29.886Z,5776.00
2022-09-01T10:48:30.833Z,5812.00
2022-09-01T10:49:29.662Z,5988.00
2022-09-01T10:50:29.508Z,6020.00
2022-09-01T10:51:36.255Z,5876.00
2022-09-01T10:52:29.783Z,6040.00
2022-09-01T10:53:28.768Z,6076.00
2022-09-01T10:54:28.818Z,6152.00
2022-09-01T10:55:28.748Z,6364.00
2022-09-01T10:56:35.549Z,6576.00
2022-09-01T10:57:30.617Z,7056.00
2022-09-01T10:59:32.049Z,6624.00
2022-09-01T11:00:36.638Z,11384.00
2022-09-01T11:01:47.780Z,9364.00
2022-09-01T11:02:35.796Z,7576.00
2022-09-01T11:03:30.643Z,20704.00
2022-09-01T11:04:28.737Z,65344.00
2022-09-01T11:05:33.126Z,42912.00
2022-09-01T11:06:33.177Z,15040.00
2022-09-01T11:07:50.319Z,12436.00
2022-09-01T11:08:29.870Z,12308.00
2022-09-01T11:09:28.567Z,11612.00
2022-09-01T11:10:33.231Z,12664.00
2022-09-01T11:11:29.626Z,13288.00
2022-09-01T11:12:29.930Z,9192.00
2022-09-01T11:13:28.549Z,9276.00
2022-09-01T11:14:28.603Z,9364.00
2022-09-01T11:15:28.553Z,9508.00
2022-09-01T11:17:29.628Z,12800.00
2022-09-01T11:18:28.416Z,11720.00
2022-09-01T11:19:28.468Z,12296.00
2022-09-01T11:20:28.395Z,12408.00
2022-09-01T11:21:28.382Z,11484.00
2022-09-01T11:22:28.489Z,11156.00
2022-09-01T11:23:28.393Z,10452.00
2022-09-01T11:24:28.459Z,9972.00
2022-09-01T11:25:38.712Z,9760.00
2022-09-01T11:26:29.345Z,9464.00
2022-09-01T11:27:28.319Z,9324.00
2022-09-01T11:28:28.440Z,9288.00
2022-09-01T11:29:28.282Z,9624.00
2022-09-01T11:30:29.227Z,10492.00
2022-09-01T11:31:28.401Z,10780.00
2022-09-01T11:32:28.369Z,10432.00
2022-09-01T11:33:28.242Z,9804.00
2022-09-01T11:34:28.297Z,9776.00
2022-09-01T11:35:28.276Z,9732.00
2022-09-01T11:36:28.195Z,9572.00
2022-09-01T11:37:28.198Z,9324.00
2022-09-01T11:38:28.205Z,9284.00
2022-09-01T11:39:28.319Z,9540.00
2022-09-01T11:40:29.723Z,10104.00
2022-09-01T11:41:28.185Z,13312.00
2022-09-01T11:42:28.125Z,42112.00
2022-09-01T11:43:28.109Z,30144.00
2022-09-01T11:44:28.113Z,61280.00
2022-09-01T11:45:28.156Z,60128.00
2022-09-01T11:46:28.205Z,61600.00
2022-09-01T11:47:28.083Z,62624.00
2022-09-01T11:48:28.065Z,59808.00
2022-09-01T11:49:28.077Z,63712.00
2022-09-01T11:50:28.052Z,69696.00
2022-09-01T11:51:28.022Z,68736.00
2022-09-01T11:52:28.014Z,65088.00
2022-09-01T11:53:28.105Z,63168.00
2022-09-01T11:54:27.969Z,61632.00
2022-09-01T11:55:27.995Z,63744.00
2022-09-01T11:56:27.960Z,65856.00
2022-09-01T11:57:27.949Z,67168.00
2022-09-01T11:58:28.618Z,68640.00
2022-09-01T11:59:29.061Z,64864.00
2022-09-01T12:00:27.891Z,61280.00
2022-09-01T12:01:27.933Z,59040.00
2022-09-01T12:02:27.904Z,59296.00
2022-09-01T12:03:27.907Z,60768.00
2022-09-01T12:04:28.024Z,58432.00
2022-09-01T12:05:27.892Z,62240.00
2022-09-01T12:06:27.884Z,41344.00
2022-09-01T12:07:28.100Z,31008.00
2022-09-01T12:08:27.823Z,69760.00
2022-09-01T12:09:27.775Z,69472.00
2022-09-01T12:10:27.768Z,52224.00
2022-09-01T12:11:27.794Z,71328.00
2022-09-01T12:12:27.767Z,72608.00
2022-09-01T12:13:27.733Z,42080.00
2022-09-01T12:14:35.231Z,26400.00
2022-09-01T12:15:28.735Z,21760.00
2022-09-01T12:16:27.723Z,16256.00
2022-09-01T12:17:27.698Z,22176.00
2022-09-01T12:18:27.662Z,17248.00
2022-09-01T12:19:27.665Z,18080.00
2022-09-01T12:20:29.417Z,19296.00
2022-09-01T12:21:27.646Z,13212.00
2022-09-01T12:22:27.735Z,12964.00
2022-09-01T12:23:27.691Z,16128.00
2022-09-01T12:24:27.596Z,17920.00
2022-09-01T12:25:27.575Z,18880.00
2022-09-01T12:26:27.562Z,17504.00
2022-09-01T12:27:28.282Z,19936.00
2022-09-01T12:28:30.427Z,20416.00
2022-09-01T12:29:31.493Z,23936.00
2022-09-01T12:30:27.510Z,20608.00
2022-09-01T12:31:31.451Z,24448.00
2022-09-01T12:32:27.501Z,21120.00
2022-09-01T12:33:27.749Z,23328.00
2022-09-01T12:34:27.477Z,25152.00
2022-09-01T12:35:27.455Z,21088.00
2022-09-01T12:36:27.435Z,20576.00
2022-09-01T12:37:27.460Z,26720.00
2022-09-01T12:38:27.441Z,16928.00
2022-09-01T12:39:27.480Z,17600.00
2022-09-01T12:40:27.466Z,77248.00
2022-09-01T12:41:28.981Z,74464.00
2022-09-01T12:42:27.398Z,48672.00
2022-09-01T12:43:27.655Z,70432.00
2022-09-01T12:44:27.355Z,53088.00
2022-09-01T12:45:27.434Z,60800.00
2022-09-01T12:46:27.349Z,22208.00
2022-09-01T12:47:27.319Z,52384.00